Terminal Aerodrome Forecast
Issued by NWS Duluth, MN

Home | Current Version | Previous Version | Text Only | Print | Product List | Glossary On
Versions: 1 2 3 4 5 6 7 8 9 10 11 12 13 14 15 16 17 18 19 20 21 22 23 24 25 26 27 28 29 30 31 32 33 34 35
000
FTUS43 KDLH 251036 AAA
TAFDLH
TAF AMD
KDLH 251036Z 2511/2606 12010KT 6SM BR VCSH OVC007 WS020/19040KT
     FM251200 16012KT 5SM BR VCSH OVC008 WS020/20040KT
     FM251600 20012G19KT P6SM SCT008 BKN012
     FM252100 22014G21KT P6SM SCT040
     FM260000 25014G18KT P6SM VCSH SCT012 BKN025=

USA.gov is the U.S. government's official web portal to all federal, state and local government web resources and services.